Time;durP1;ratioP1;P1;durP2;ratioP2;P2;SDS_P1;SDS_P2;PMS_P1;PMS_P2;Temp;Humidity;BMP_temperature;BMP_pressure;BME280_temperature;BME280_humidity;BME280_pressure;Samples;Min_cycle;Max_cycle;Signal;HPM_P1;HPM_P2
2022/08/19 03:04:59;;;;;;;22.67;20.52;;;;;;;20.46;73.45;100123.53;5149026;27;20408;-25
2022/08/19 03:07:25;;;;;;;22.70;20.40;;;;;;;20.46;72.55;100128.91;5132371;27;20035;-24
2022/08/19 03:09:50;;;;;;;23.08;20.75;;;;;;;20.46;72.40;100126.22;5140901;27;20011;-26
2022/08/19 03:12:15;;;;;;;23.13;20.55;;;;;;;20.46;72.98;100137.81;5127971;27;20016;-24
2022/08/19 03:14:40;;;;;;;21.83;19.63;;;;;;;20.45;72.50;100137.91;5132643;27;20077;-25
2022/08/19 03:17:06;;;;;;;21.90;19.70;;;;;;;20.47;72.39;100138.69;5089449;22;20051;-25
2022/08/19 03:19:31;;;;;;;21.33;19.13;;;;;;;20.47;72.47;100142.19;5067488;28;20506;-25
2022/08/19 03:21:57;;;;;;;20.52;18.50;;;;;;;20.49;72.56;100150.16;5068011;28;20368;-25
2022/08/19 03:24:23;;;;;;;22.42;20.13;;;;;;;20.48;72.43;100165.34;5071342;28;20048;-25
2022/08/19 03:26:51;;;;;;;22.92;20.63;;;;;;;20.50;72.25;100173.28;5074006;28;20460;-25
2022/08/19 03:29:18;;;;;;;22.70;20.35;;;;;;;20.48;72.42;100176.06;5071939;28;20020;-25
2022/08/19 03:31:44;;;;;;;21.77;19.50;;;;;;;20.49;72.15;100169.78;5056876;28;20456;-25
2022/08/19 03:34:12;;;;;;;22.20;19.92;;;;;;;20.50;72.02;100179.53;5036592;28;20017;-24
2022/08/19 03:36:38;;;;;;;21.23;19.23;;;;;;;20.52;72.27;100184.78;5073782;28;20120;-24
2022/08/19 03:39:08;;;;;;;21.27;19.17;;;;;;;20.55;72.67;100183.75;5075142;28;20440;-25
2022/08/19 03:41:40;;;;;;;21.63;18.90;;;;;;;20.54;72.67;100195.44;5078728;28;20032;-24
2022/08/19 03:44:05;;;;;;;20.38;18.35;;;;;;;20.57;72.42;100204.13;5061574;28;20500;-24
2022/08/19 03:46:33;;;;;;;21.77;19.67;;;;;;;20.57;73.11;100206.81;5049162;28;20029;-24
2022/08/19 03:49:03;;;;;;;21.02;18.95;;;;;;;20.55;73.11;100219.44;5039333;28;20035;-25
2022/08/19 03:51:31;;;;;;;21.15;18.95;;;;;;;20.53;72.27;100224.00;5063843;28;20373;-25
2022/08/19 03:53:58;;;;;;;21.00;18.58;;;;;;;20.56;72.59;100231.00;5057841;28;20024;-25
2022/08/19 03:56:27;;;;;;;20.77;18.73;;;;;;;20.58;72.40;100237.16;5063296;28;20029;-25
2022/08/19 03:58:54;;;;;;;20.55;18.50;;;;;;;20.59;72.34;100242.41;5059290;28;20396;-25
2022/08/19 04:01:21;;;;;;;21.05;19.05;;;;;;;20.59;72.13;100257.63;5067593;28;20028;-25
2022/08/19 04:03:50;;;;;;;19.85;17.85;;;;;;;20.60;72.84;100260.22;5052870;28;20091;-25
2022/08/19 04:06:18;;;;;;;20.70;18.63;;;;;;;20.59;72.92;100254.94;5057626;28;20131;-25
2022/08/19 04:08:45;;;;;;;21.85;18.42;;;;;;;20.59;72.87;100261.16;5057176;28;20033;-25
2022/08/19 04:11:14;;;;;;;20.02;17.88;;;;;;;20.61;73.05;100261.09;5045461;28;20492;-24
2022/08/19 04:13:41;;;;;;;20.48;18.30;;;;;;;20.57;72.40;100260.38;5037044;28;20029;-25
2022/08/19 04:16:09;;;;;;;22.17;19.95;;;;;;;20.58;73.29;100251.38;5056191;28;20036;-25
2022/08/19 04:18:40;;;;;;;21.38;19.30;;;;;;;20.57;72.55;100252.34;5055711;28;20020;-25
2022/08/19 04:21:07;;;;;;;19.95;17.85;;;;;;;20.58;72.44;100254.06;5062117;28;20036;-25
2022/08/19 04:23:32;;;;;;;19.98;18.05;;;;;;;20.57;72.23;100260.38;5038130;28;20032;-25
2022/08/19 04:25:57;;;;;;;20.42;18.35;;;;;;;20.59;72.77;100263.84;5035936;28;20423;-25
2022/08/19 04:28:23;;;;;;;19.55;17.65;;;;;;;20.60;72.12;100284.31;5057735;28;20064;-25
2022/08/19 04:30:52;;;;;;;18.90;17.02;;;;;;;20.60;72.36;100272.72;5037185;28;20031;-24
2022/08/19 04:33:20;;;;;;;19.80;17.70;;;;;;;20.60;72.63;100289.69;5054155;28;20432;-24
2022/08/19 04:35:48;;;;;;;19.73;17.58;;;;;;;20.61;73.70;100274.47;5056599;28;20033;-24
2022/08/19 04:38:16;;;;;;;20.05;18.02;;;;;;;20.57;73.22;100273.78;5054333;28;20295;-25
2022/08/19 04:43:34;;;;;;;20.38;18.38;;;;;;;20.57;73.29;100241.63;5053168;28;20063;-25
2022/08/19 04:46:07;;;;;;;20.55;18.63;;;;;;;20.57;73.40;100228.25;5055159;28;20047;-25
2022/08/19 04:48:34;;;;;;;21.90;19.60;;;;;;;20.58;73.34;100224.59;5061493;28;20029;-25
2022/08/19 04:50:59;;;;;;;22.70;20.40;;;;;;;20.58;73.38;100224.59;5061304;28;20032;-25
2022/08/19 04:53:28;;;;;;;20.95;18.85;;;;;;;20.58;73.80;100224.59;5060307;28;20025;-25
2022/08/19 04:55:54;;;;;;;21.35;19.10;;;;;;;20.58;74.37;100227.28;5054452;28;20502;-25
2022/08/19 04:58:20;;;;;;;22.17;19.80;;;;;;;20.58;73.97;100224.59;5036999;28;20416;-24
2022/08/19 05:00:45;;;;;;;20.25;18.25;;;;;;;20.59;74.51;100228.16;5062175;28;20099;-24
2022/08/19 05:03:10;;;;;;;20.98;18.77;;;;;;;20.57;74.03;100230.91;5059645;28;20017;-24
2022/08/19 05:05:40;;;;;;;21.80;19.55;;;;;;;20.60;74.50;100236.09;5056600;28;20033;-24
2022/08/19 05:08:07;;;;;;;20.38;18.33;;;;;;;20.59;74.85;100234.38;5055296;28;20424;-24
2022/08/19 05:10:38;;;;;;;21.70;19.50;;;;;;;20.60;74.72;100230.75;5056269;28;20029;-25
2022/08/19 05:13:04;;;;;;;22.35;20.15;;;;;;;20.60;74.84;100228.06;5052430;28;20155;-25
2022/08/19 05:15:29;;;;;;;21.48;19.17;;;;;;;20.62;74.75;100227.97;5055864;28;20121;-25
2022/08/19 05:23:23;;;;;;;19.15;17.27;;;;;;;20.61;74.14;100251.22;5049410;28;20088;-25
2022/08/19 05:25:50;;;;;;;18.30;16.60;;;;;;;20.62;74.53;100252.97;5055817;28;20064;-26
2022/08/19 05:28:15;;;;;;;19.27;17.38;;;;;;;20.62;74.33;100261.00;5051935;28;20025;-25
2022/08/19 05:30:40;;;;;;;19.63;17.73;;;;;;;20.63;73.95;100260.03;5055405;28;20495;-26
2022/08/19 05:33:09;;;;;;;19.20;17.40;;;;;;;20.62;74.16;100252.97;5052567;28;20017;-25
2022/08/19 05:35:36;;;;;;;18.40;16.40;;;;;;;20.63;74.14;100249.31;5050643;28;20036;-26
2022/08/19 05:38:03;;;;;;;20.02;17.58;;;;;;;20.63;74.15;100251.13;5053284;28;20100;-26
2022/08/19 05:40:29;;;;;;;18.10;16.35;;;;;;;20.63;74.08;100260.03;5052829;28;20178;-25
2022/08/19 05:42:55;;;;;;;17.40;15.48;;;;;;;20.63;74.08;100260.03;5044949;28;20074;-25
2022/08/19 05:45:21;;;;;;;16.85;15.18;;;;;;;20.64;74.28;100264.44;5051256;28;20437;-25
2022/08/19 05:47:47;;;;;;;17.65;16.05;;;;;;;20.64;73.82;100261.75;5054675;28;20060;-26
2022/08/19 05:50:12;;;;;;;17.83;15.95;;;;;;;20.65;74.20;100262.63;5040664;28;20033;-25
2022/08/19 05:52:38;;;;;;;16.30;14.60;;;;;;;20.63;73.80;100260.03;5053450;28;20031;-25
2022/08/19 05:55:05;;;;;;;16.13;14.65;;;;;;;20.64;74.30;100264.44;5042470;28;20477;-25
2022/08/19 05:57:31;;;;;;;16.10;14.50;;;;;;;20.65;74.35;100265.31;5055663;28;20592;-25
2022/08/19 06:00:00;;;;;;;15.15;13.77;;;;;;;20.64;74.11;100261.75;5050085;28;20112;-25
2022/08/19 06:02:26;;;;;;;15.95;13.57;;;;;;;20.67;74.47;100270.59;5051470;28;20035;-26
2022/08/19 06:04:51;;;;;;;15.65;14.10;;;;;;;20.66;74.48;100280.41;5039127;28;20465;-26
2022/08/19 06:07:16;;;;;;;15.45;13.95;;;;;;;20.66;74.53;100274.19;5051148;28;20037;-25
2022/08/19 06:09:42;;;;;;;15.07;13.57;;;;;;;20.67;73.98;100274.09;5048856;28;20029;-25
2022/08/19 06:12:07;;;;;;;13.82;12.30;;;;;;;20.68;73.91;100275.84;5057701;28;20112;-25
2022/08/19 06:14:35;;;;;;;14.98;13.07;;;;;;;20.67;73.57;100279.47;5051647;28;20108;-25
2022/08/19 06:17:01;;;;;;;13.95;12.55;;;;;;;20.69;74.17;100287.41;5048569;28;20066;-25
2022/08/19 06:19:29;;;;;;;13.77;12.38;;;;;;;20.70;74.70;100300.72;5049510;28;20028;-25
2022/08/19 06:21:55;;;;;;;13.82;12.43;;;;;;;20.71;74.66;100298.91;5050445;28;20485;-25
2022/08/19 06:24:23;;;;;;;13.63;12.20;;;;;;;20.71;74.30;100306.97;5044520;28;20048;-24
2022/08/19 06:26:52;;;;;;;13.32;12.13;;;;;;;20.72;74.48;100296.16;5047633;28;20024;-25
2022/08/19 06:29:24;;;;;;;13.98;12.63;;;;;;;20.72;74.11;100293.47;5052362;28;20025;-26
2022/08/19 06:31:53;;;;;;;14.23;11.85;;;;;;;20.74;74.75;100293.38;5046653;28;20515;-26
2022/08/19 06:34:19;;;;;;;13.15;11.65;;;;;;;20.75;74.54;100311.19;5042700;28;20017;-26
2022/08/19 06:36:47;;;;;;;12.73;11.55;;;;;;;20.76;74.69;100318.25;5029431;28;20119;-25
2022/08/19 06:39:18;;;;;;;13.27;11.93;;;;;;;20.77;74.54;100317.31;5051195;28;20033;-25
2022/08/19 06:41:49;;;;;;;12.70;11.50;;;;;;;20.80;74.54;100319.81;5048751;28;20028;-26
2022/08/19 06:44:15;;;;;;;13.00;11.63;;;;;;;20.80;74.39;100324.31;5058789;28;20112;-25
2022/08/19 06:46:41;;;;;;;12.77;11.55;;;;;;;20.81;74.25;100313.50;5052204;28;20033;-26
2022/08/19 06:49:13;;;;;;;14.05;12.68;;;;;;;20.83;74.67;100319.63;5052816;28;20094;-25
2022/08/19 06:51:40;;;;;;;15.23;11.27;;;;;;;20.85;75.01;100316.88;5048433;28;20025;-25
2022/08/19 06:54:05;;;;;;;12.27;11.15;;;;;;;20.86;74.64;100326.63;5048767;28;20021;-25
2022/08/19 06:56:34;;;;;;;12.70;11.43;;;;;;;20.86;74.68;100335.53;5049494;28;20044;-26
2022/08/19 06:59:05;;;;;;;13.02;11.73;;;;;;;20.89;75.21;100346.13;5059555;28;20017;-26
2022/08/19 07:01:37;;;;;;;12.77;11.48;;;;;;;20.91;75.01;100354.09;5037027;28;20046;-24
2022/08/19 07:04:08;;;;;;;13.13;11.75;;;;;;;20.94;74.78;100355.72;5063136;28;20025;-25
2022/08/19 07:06:34;;;;;;;13.57;12.20;;;;;;;20.92;75.58;100355.81;5053591;28;20017;-24
2022/08/19 07:08:59;;;;;;;13.52;11.50;;;;;;;20.94;75.17;100353.88;5035605;28;20059;-24
2022/08/19 07:11:25;;;;;;;13.95;12.27;;;;;;;20.99;75.74;100364.34;5051042;28;20052;-24
2022/08/19 07:13:50;;;;;;;12.70;11.48;;;;;;;21.00;76.16;100371.41;5052147;28;20400;-25
2022/08/19 07:16:21;;;;;;;13.80;12.38;;;;;;;21.01;75.95;100371.34;5053524;28;20033;-25
2022/08/19 07:18:48;;;;;;;12.88;11.68;;;;;;;21.00;76.20;100368.75;5054798;28;20551;-24
2022/08/19 07:21:19;;;;;;;12.23;10.98;;;;;;;21.04;75.89;100378.34;5039454;28;20029;-24
2022/08/19 07:23:45;;;;;;;13.88;11.43;;;;;;;21.08;75.67;100384.41;5053465;28;20075;-23
2022/08/19 07:26:15;;;;;;;11.98;10.50;;;;;;;21.10;75.99;100386.03;5038849;28;20493;-24
2022/08/19 07:28:43;;;;;;;16.97;12.80;;;;;;;21.13;75.37;100393.03;5049319;28;20098;-24
2022/08/19 07:31:11;;;;;;;12.85;11.65;;;;;;;21.14;75.22;100394.78;5037227;28;20391;-24
2022/08/19 07:33:37;;;;;;;12.63;11.40;;;;;;;21.15;74.35;100400.03;5052706;28;20115;-24
2022/08/19 07:36:07;;;;;;;12.48;11.07;;;;;;;21.17;74.53;100412.50;5049406;28;20123;-24
2022/08/19 07:38:34;;;;;;;12.30;11.02;;;;;;;21.15;74.23;100416.09;5055358;28;20056;-24
2022/08/19 07:41:00;;;;;;;12.65;11.45;;;;;;;21.16;73.83;100419.66;5036577;28;20040;-24
2022/08/19 07:43:26;;;;;;;12.80;11.45;;;;;;;21.15;73.56;100421.47;5035559;28;20060;-24
2022/08/19 07:45:56;;;;;;;13.55;12.00;;;;;;;21.15;73.71;100420.63;5057714;28;20070;-24
2022/08/19 07:48:25;;;;;;;13.35;11.95;;;;;;;21.14;73.85;100410.88;5062534;28;20028;-22
2022/08/19 07:51:01;;;;;;;12.60;11.30;;;;;;;21.11;73.56;100419.06;5057072;28;20017;-25
2022/08/19 07:53:28;;;;;;;11.90;10.70;;;;;;;21.10;73.75;100423.56;5050938;28;20017;-25
2022/08/19 07:55:54;;;;;;;11.90;10.48;;;;;;;21.10;73.42;100426.25;5050012;28;20060;-24
2022/08/19 07:58:21;;;;;;;13.02;11.75;;;;;;;21.09;73.43;100432.56;5047941;28;20701;-25
2022/08/19 08:00:49;;;;;;;12.05;10.85;;;;;;;21.09;73.10;100426.34;5053322;28;20129;-24
2022/08/19 08:03:17;;;;;;;12.35;10.40;;;;;;;21.08;72.76;100427.28;5053157;28;20044;-25
2022/08/19 08:11:03;;;;;;;11.95;10.88;;;;;;;21.06;73.24;100432.75;5052031;28;20074;-24
2022/08/19 08:13:28;;;;;;;11.27;10.23;;;;;;;21.05;72.87;100436.38;5058682;28;20361;-25
2022/08/19 08:15:53;;;;;;;11.95;10.75;;;;;;;21.07;72.40;100442.50;5057597;28;20032;-24
2022/08/19 08:18:20;;;;;;;11.90;10.70;;;;;;;21.06;72.88;100440.78;5051570;28;20028;-25
2022/08/19 08:20:46;;;;;;;11.32;10.23;;;;;;;21.08;72.54;100446.06;5053131;28;20098;-24
2022/08/19 08:23:24;;;;;;;12.15;9.90;;;;;;;21.08;71.85;100440.69;5057006;28;20479;-25
2022/08/19 08:25:52;;;;;;;11.68;10.48;;;;;;;21.07;72.79;100453.22;5051419;28;20120;-24
2022/08/19 08:28:17;;;;;;;10.82;9.77;;;;;;;21.08;72.83;100457.66;5036668;28;20361;-24
2022/08/19 08:30:45;;;;;;;10.73;9.70;;;;;;;21.06;72.81;100456.88;5052325;28;20036;-24
2022/08/19 08:33:10;;;;;;;10.93;9.90;;;;;;;21.05;72.93;100441.75;5055134;28;20054;-25
2022/08/19 08:35:36;;;;;;;10.60;9.60;;;;;;;21.05;72.60;100455.16;5052921;28;20032;-24
2022/08/19 08:38:03;;;;;;;9.50;8.52;;;;;;;21.05;72.58;100454.28;5053271;28;20021;-24
2022/08/19 08:40:39;;;;;;;10.90;9.77;;;;;;;21.05;72.74;100456.94;5034165;28;20071;-24
2022/08/19 08:43:33;;;;;;;11.05;9.95;;;;;;;21.05;72.71;100456.94;5037300;28;20028;-24
2022/08/19 08:46:28;;;;;;;12.75;10.00;;;;;;;21.04;72.72;100447.19;5032950;28;20056;-25
2022/08/19 08:49:31;;;;;;;10.35;8.93;;;;;;;21.05;72.70;100456.94;5038668;28;20116;-24
2022/08/19 08:52:36;;;;;;;10.18;9.18;;;;;;;21.05;72.19;100456.94;5039022;28;20082;-24
2022/08/19 08:55:11;;;;;;;9.32;8.38;;;;;;;21.04;72.51;100453.41;5050677;28;20503;-24
2022/08/19 08:57:48;;;;;;;11.40;9.10;;;;;;;21.05;71.97;100456.94;5037042;28;20120;-23
2022/08/19 09:00:36;;;;;;;10.00;8.98;;;;;;;21.04;72.24;100464.13;5048685;28;20036;-24
2022/08/19 09:03:05;;;;;;;10.00;9.00;;;;;;;21.05;71.87;100463.19;5055492;28;20075;-24
2022/08/19 09:05:51;;;;;;;9.77;8.80;;;;;;;21.02;72.76;100468.72;5040748;28;20434;-24
2022/08/19 09:08:53;;;;;;;9.63;8.63;;;;;;;21.04;72.45;100476.69;5042424;28;20115;-24
2022/08/19 09:11:25;;;;;;;10.63;9.63;;;;;;;21.02;73.39;100480.31;5062360;28;21130;-23
2022/08/19 09:14:17;;;;;;;10.73;9.93;;;;;;;20.99;72.97;100482.28;5047607;28;20024;-25
2022/08/19 09:19:12;;;;;;;11.07;9.90;;;;;;;20.97;72.51;100471.66;5061519;28;20041;-23
2022/08/19 09:21:38;;;;;;;11.52;10.43;;;;;;;20.97;72.38;100478.84;5047747;28;20040;-23
2022/08/19 09:24:04;;;;;;;11.07;10.02;;;;;;;20.95;72.15;100472.69;5062912;28;20051;-23
2022/08/19 09:26:32;;;;;;;12.15;10.85;;;;;;;20.95;72.85;100475.38;5061924;28;20035;-23
2022/08/19 09:28:58;;;;;;;10.63;9.63;;;;;;;20.95;72.68;100478.94;5064608;28;20032;-23
2022/08/19 09:31:26;;;;;;;10.52;9.38;;;;;;;20.93;72.71;100474.59;5060615;28;20078;-24
2022/08/19 09:33:56;;;;;;;10.73;9.40;;;;;;;20.92;72.96;100479.09;5061169;28;20028;-24
2022/08/19 09:36:24;;;;;;;10.95;9.85;;;;;;;20.92;73.35;100480.91;5038435;28;20035;-23
2022/08/19 09:38:50;;;;;;;12.02;10.07;;;;;;;20.89;72.63;100485.50;5062988;28;20395;-24
2022/08/19 09:41:18;;;;;;;10.48;9.48;;;;;;;20.90;72.53;100483.66;5064087;28;20037;-24
2022/08/19 09:43:46;;;;;;;10.93;9.93;;;;;;;20.88;72.36;100478.38;5064545;28;20027;-23
2022/08/19 09:46:12;;;;;;;10.52;9.50;;;;;;;20.89;72.99;100477.47;5064949;28;20098;-25
2022/08/19 09:48:39;;;;;;;11.30;10.27;;;;;;;20.89;72.38;100480.13;5062179;28;20559;-23
2022/08/19 09:51:15;;;;;;;10.75;9.75;;;;;;;20.90;72.25;100475.63;5064524;28;20024;-23
2022/08/19 09:53:41;;;;;;;9.90;8.98;;;;;;;20.89;72.54;100474.78;5063614;28;20035;-24
2022/08/19 09:56:07;;;;;;;12.18;9.50;;;;;;;20.90;72.92;100480.97;5062017;28;20387;-24
2022/08/19 09:58:34;;;;;;;9.10;8.30;;;;;;;20.89;72.73;100490.84;5060488;28;20032;-24
2022/08/19 10:01:00;;;;;;;11.07;9.98;;;;;;;20.89;72.60;100490.84;5045104;28;20374;-24
2022/08/19 10:03:28;;;;;;;10.20;9.23;;;;;;;20.89;72.74;100485.50;5066323;28;20032;-23
2022/08/19 10:05:55;;;;;;;9.68;8.68;;;;;;;20.88;72.35;100478.38;5062737;28;20491;-24
2022/08/19 10:08:30;;;;;;;11.18;9.88;;;;;;;20.88;72.68;100473.03;5060250;28;20043;-24
2022/08/19 10:10:57;;;;;;;11.27;10.15;;;;;;;20.89;73.01;100473.91;5044448;28;20102;-23
2022/08/19 10:13:25;;;;;;;11.05;9.95;;;;;;;20.88;73.13;100472.16;5066298;28;20020;-24
2022/08/19 10:15:52;;;;;;;11.95;10.73;;;;;;;20.89;72.92;100474.78;5043846;28;20063;-24
2022/08/19 10:18:20;;;;;;;11.65;10.63;;;;;;;20.89;73.16;100472.09;5045914;28;20035;-25
2022/08/19 10:20:47;;;;;;;11.60;10.40;;;;;;;20.91;73.09;100457.75;5046000;28;20149;-24
2022/08/19 10:23:12;;;;;;;12.13;10.85;;;;;;;20.91;72.70;100460.41;5063540;28;20017;-25
2022/08/19 10:25:38;;;;;;;12.13;10.80;;;;;;;20.93;72.70;100471.91;5048391;28;20047;-23
2022/08/19 10:28:05;;;;;;;11.30;10.20;;;;;;;20.95;73.15;100472.69;5071890;28;20383;-24
2022/08/19 10:30:31;;;;;;;11.40;10.27;;;;;;;20.96;72.82;100464.56;5065914;28;20028;-24
2022/08/19 10:32:57;;;;;;;10.65;9.70;;;;;;;20.99;72.73;100463.53;5043922;28;20023;-24
2022/08/19 10:35:22;;;;;;;10.65;9.68;;;;;;;21.01;72.67;100473.22;5064240;28;20113;-23
2022/08/19 10:37:48;;;;;;;10.63;9.55;;;;;;;21.04;72.55;100488.25;5068854;28;20532;-23
2022/08/19 10:40:13;;;;;;;9.85;8.98;;;;;;;21.04;72.09;100488.25;5051846;28;20059;-24
2022/08/19 10:42:38;;;;;;;10.32;9.35;;;;;;;21.07;72.58;100490.75;5063295;28;20534;-23
2022/08/19 10:45:25;;;;;;;10.35;9.35;;;;;;;21.07;72.11;100477.34;5046177;28;20115;-24
2022/08/19 10:47:52;;;;;;;10.10;9.10;;;;;;;21.12;72.26;100482.47;5069733;28;20396;-23
2022/08/19 10:53:08;;;;;;;10.80;9.70;;;;;;;21.17;71.81;100475.00;5065761;28;20032;-23
2022/08/19 10:58:22;;;;;;;11.43;10.20;;;;;;;21.21;71.85;100479.25;5060113;28;20059;-23
2022/08/19 11:00:53;;;;;;;12.65;10.73;;;;;;;21.21;71.75;100473.03;5067061;28;20383;-23
2022/08/19 11:03:19;;;;;;;13.00;11.70;;;;;;;21.24;71.62;100473.72;5067441;28;20021;-24
2022/08/19 11:05:58;;;;;;;13.95;12.43;;;;;;;21.27;72.09;100473.53;5069605;28;20099;-23
2022/08/19 11:08:24;;;;;;;13.02;11.68;;;;;;;21.33;72.20;100475.00;5046794;28;20028;-24
2022/08/19 11:10:55;;;;;;;12.85;11.65;;;;;;;21.34;72.32;100466.00;5067460;28;20041;-23
2022/08/19 11:13:20;;;;;;;;;;;;;;;21.39;72.36;100455.88;5066285;28;20025;-23
2022/08/19 11:16:13;;;;;;;14.55;12.07;;;;;;;21.50;72.67;100452.56;5072365;28;20361;-23
2022/08/19 11:18:43;;;;;;;14.60;13.18;;;;;;;21.59;72.29;100445.78;5073695;28;20027;-23
2022/08/19 11:21:13;;;;;;;;;;;;;;;21.69;72.04;100442.53;5069370;28;20024;-24
2022/08/19 11:23:39;;;;;;;13.27;11.90;;;;;;;21.80;71.80;100448.16;5068469;28;19995;-24
2022/08/19 11:26:04;;;;;;;14.43;12.70;;;;;;;21.87;71.23;100449.53;5039477;28;20350;-23
2022/08/19 11:28:30;;;;;;;13.23;11.82;;;;;;;21.95;70.62;100443.72;5058317;28;20386;-24
2022/08/19 11:30:55;;;;;;;13.48;12.18;;;;;;;22.03;70.36;100443.22;5068432;28;20056;-23
2022/08/19 11:33:20;;;;;;;13.23;11.93;;;;;;;22.05;70.04;100442.16;5068745;28;20506;-23
2022/08/19 11:35:46;;;;;;;14.60;13.02;;;;;;;22.05;69.72;100439.47;5072304;28;20024;-23
2022/08/19 11:38:11;;;;;;;15.73;13.57;;;;;;;22.14;69.85;100440.75;5064683;28;20031;-23
2022/08/19 11:40:37;;;;;;;14.25;12.85;;;;;;;22.21;69.58;100437.69;5056605;28;20024;-23
2022/08/19 11:43:02;;;;;;;13.20;11.90;;;;;;;22.29;69.42;100443.44;5048494;28;20017;-23
2022/08/19 11:45:29;;;;;;;13.70;12.30;;;;;;;22.36;69.28;100455.53;5069038;28;20376;-23
2022/08/19 11:47:54;;;;;;;13.43;12.07;;;;;;;22.41;69.46;100450.72;5069111;28;20026;-23
2022/08/19 11:50:19;;;;;;;14.50;13.02;;;;;;;22.46;68.95;100458.50;5063595;28;20040;-23
2022/08/19 11:52:45;;;;;;;14.18;12.73;;;;;;;22.50;69.21;100459.16;5066049;28;20029;-23
2022/08/19 11:55:14;;;;;;;14.98;12.65;;;;;;;22.51;68.92;100459.06;5071886;28;20559;-23
2022/08/19 11:57:41;;;;;;;13.50;12.18;;;;;;;22.57;69.00;100463.22;5066351;28;20498;-23
2022/08/19 12:00:07;;;;;;;14.40;12.85;;;;;;;22.63;68.51;100462.84;5067678;28;20077;-24
2022/08/19 12:02:33;;;;;;;13.82;12.48;;;;;;;22.66;68.32;100467.16;5036671;28;20035;-23
2022/08/19 12:04:58;;;;;;;12.32;11.13;;;;;;;22.72;67.76;100476.66;5051753;28;20028;-23
2022/08/19 12:07:24;;;;;;;12.88;11.35;;;;;;;22.69;67.58;100469.66;5065227;28;20036;-23
2022/08/19 12:09:49;;;;;;;13.52;11.38;;;;;;;22.75;67.29;100476.47;5071435;28;20023;-23
2022/08/19 12:12:15;;;;;;;13.05;11.75;;;;;;;22.81;67.27;100474.22;5027996;28;20025;-23
2022/08/19 12:14:40;;;;;;;13.13;11.88;;;;;;;22.83;66.88;100466.06;5063457;28;20116;-23
2022/08/19 12:17:07;;;;;;;12.20;10.93;;;;;;;22.82;67.03;100472.41;5068123;28;20017;-23
2022/08/19 12:19:33;;;;;;;12.35;11.07;;;;;;;22.87;66.90;100472.97;5067017;28;20027;-23
2022/08/19 12:22:02;;;;;;;11.43;10.32;;;;;;;22.83;67.15;100474.13;5061718;28;20021;-24
2022/08/19 12:24:32;;;;;;;11.55;10.48;;;;;;;22.91;66.89;100477.19;5066945;28;20375;-23
2022/08/19 12:26:58;;;;;;;11.10;10.02;;;;;;;22.94;66.68;100477.00;5070573;28;20032;-23
2022/08/19 12:29:28;;;;;;;10.38;9.32;;;;;;;22.94;66.72;100481.50;5065104;28;20112;-24
2022/08/19 12:31:54;;;;;;;10.45;9.48;;;;;;;23.01;66.73;100473.91;5064329;28;20021;-24
2022/08/19 12:34:20;;;;;;;9.77;8.88;;;;;;;23.04;66.52;100474.56;5067847;28;20082;-23
2022/08/19 12:36:45;;;;;;;9.57;8.77;;;;;;;23.08;66.38;100472.56;5063917;28;20020;-23
2022/08/19 12:39:10;;;;;;;10.57;9.50;;;;;;;23.06;66.19;100466.41;5051262;28;20039;-24
2022/08/19 12:41:37;;;;;;;12.68;10.95;;;;;;;23.00;66.43;100461.41;5068740;28;20028;-23
2022/08/19 12:44:02;;;;;;;10.15;9.15;;;;;;;23.01;66.12;100449.72;5068834;28;20064;-23
2022/08/19 12:46:27;;;;;;;10.55;9.52;;;;;;;23.04;66.06;100446.84;5069406;28;20443;-23
2022/08/19 12:48:54;;;;;;;9.95;9.05;;;;;;;23.04;65.55;100439.59;5046861;28;20395;-23
2022/08/19 12:51:19;;;;;;;11.07;10.07;;;;;;;23.02;65.69;100435.31;5064693;28;20024;-23
2022/08/19 12:53:49;;;;;;;10.02;9.05;;;;;;;23.07;65.67;100425.09;5045943;28;20089;-24
2022/08/19 12:56:15;;;;;;;12.35;11.15;;;;;;;23.08;65.84;100426.84;5046837;28;20131;-23
2022/08/19 12:58:41;;;;;;;13.32;11.63;;;;;;;23.09;66.12;100419.63;5068741;28;20060;-23
2022/08/19 13:01:12;;;;;;;13.55;12.25;;;;;;;23.09;66.42;100425.88;5049598;28;20494;-24
2022/08/19 13:03:38;;;;;;;12.80;11.52;;;;;;;23.13;65.94;100426.50;5052013;28;20467;-24
2022/08/19 13:06:03;;;;;;;13.38;11.98;;;;;;;23.16;65.79;100423.63;5063458;28;20109;-23
2022/08/19 13:08:28;;;;;;;15.32;13.80;;;;;;;23.14;65.71;100425.56;5066483;28;20056;-23
2022/08/19 13:10:54;;;;;;;15.40;13.95;;;;;;;23.15;65.84;100425.47;5069680;28;20024;-23
2022/08/19 13:13:19;;;;;;;14.85;13.38;;;;;;;23.17;66.00;100430.72;5064795;28;20028;-23
2022/08/19 13:15:45;;;;;;;15.80;14.25;;;;;;;23.17;65.74;100428.91;5067955;28;20028;-23
2022/08/19 13:18:12;;;;;;;17.83;16.05;;;;;;;23.17;65.42;100428.03;5061139;28;20025;-24
2022/08/19 13:20:38;;;;;;;16.52;14.60;;;;;;;23.18;65.22;100430.63;5063253;28;20387;-24
2022/08/19 13:23:04;;;;;;;17.83;16.13;;;;;;;23.14;65.63;100434.47;5049034;28;20100;-23
2022/08/19 13:25:29;;;;;;;17.33;15.35;;;;;;;23.13;65.43;100431.88;5063522;28;20033;-23
2022/08/19 13:27:55;;;;;;;18.00;16.08;;;;;;;23.11;65.72;100432.00;5066636;28;20017;-23
2022/08/19 13:33:11;;;;;;;17.38;15.73;;;;;;;23.20;65.50;100428.72;5071046;28;20050;-23
2022/08/19 13:35:57;;;;;;;17.08;15.27;;;;;;;23.19;64.75;100424.31;5059207;28;20113;-23
2022/08/19 13:38:22;;;;;;;16.13;14.48;;;;;;;23.14;65.61;100429.09;5063563;28;20074;-23
2022/08/19 13:40:50;;;;;;;17.50;15.35;;;;;;;23.18;65.19;100432.47;5060034;28;20028;-23
2022/08/19 13:43:17;;;;;;;16.85;15.15;;;;;;;23.22;64.73;100427.72;5028812;28;20024;-23
2022/08/19 13:45:42;;;;;;;17.80;16.10;;;;;;;23.20;64.68;100439.47;5067874;28;20051;-23
2022/08/19 13:48:09;;;;;;;18.63;16.77;;;;;;;23.19;64.52;100432.38;5065516;28;20035;-23
2022/08/19 13:50:42;;;;;;;17.50;15.70;;;;;;;23.22;64.71;100443.88;5049637;28;20079;-23
2022/08/19 13:53:08;;;;;;;17.02;15.45;;;;;;;23.24;64.70;100450.03;5068654;28;20032;-23
2022/08/19 13:55:35;;;;;;;17.35;15.55;;;;;;;23.25;64.51;100449.06;5061087;28;20053;-23
2022/08/19 13:58:01;;;;;;;16.27;14.77;;;;;;;23.25;64.33;100451.75;5070028;28;20059;-24
2022/08/19 14:00:32;;;;;;;15.90;14.32;;;;;;;23.25;64.16;100462.50;5064338;28;20231;-23
2022/08/19 14:02:58;;;;;;;16.63;14.93;;;;;;;23.26;64.36;100464.22;5042065;28;20085;-23
2022/08/19 14:05:25;;;;;;;17.75;15.82;;;;;;;23.25;63.93;100460.69;5045726;28;20451;-22
2022/08/19 14:07:51;;;;;;;15.63;14.07;;;;;;;23.26;64.26;100472.28;5062106;28;20025;-22
2022/08/19 14:10:17;;;;;;;15.23;13.82;;;;;;;23.26;64.04;100477.69;5049623;28;20047;-22
2022/08/19 14:12:42;;;;;;;15.75;14.25;;;;;;;23.25;64.20;100478.66;5062743;28;20042;-22
2022/08/19 14:15:10;;;;;;;14.93;13.52;;;;;;;23.24;64.35;100483.16;5040513;28;20454;-22
2022/08/19 14:17:39;;;;;;;15.10;13.70;;;;;;;23.23;63.88;100480.56;5041674;28;20016;-22
2022/08/19 14:20:08;;;;;;;15.20;13.73;;;;;;;23.23;64.18;100488.63;5050495;28;20484;-23
2022/08/19 14:22:39;;;;;;;14.27;12.98;;;;;;;23.20;64.04;100487.88;5064250;28;20499;-23
2022/08/19 14:25:05;;;;;;;;;;;;;;;23.19;64.39;100485.28;5043662;28;20024;-22
2022/08/19 14:27:33;;;;;;;13.40;12.20;;;;;;;23.18;63.82;100491.66;5066680;28;20019;-22
2022/08/19 14:29:59;;;;;;;13.75;12.45;;;;;;;23.17;64.10;100495.28;5069171;28;20024;-23
2022/08/19 14:32:26;;;;;;;14.15;12.85;;;;;;;23.14;64.27;100501.72;5063077;28;20028;-22
2022/08/19 14:34:54;;;;;;;13.85;12.60;;;;;;;23.14;64.44;100503.56;5070345;28;20029;-22
2022/08/19 14:37:20;;;;;;;14.82;13.43;;;;;;;23.13;64.46;100496.44;5046264;28;20024;-23
2022/08/19 14:43:07;;;;;;;12.95;11.65;;;;;;;23.07;64.25;100503.97;5059766;28;20075;-22
2022/08/19 14:45:35;;;;;;;12.15;11.05;;;;;;;23.04;64.54;100503.31;5060773;28;20044;-22
2022/08/19 14:48:01;;;;;;;12.93;11.82;;;;;;;23.03;64.34;100501.56;5043386;28;20111;-22